Time;durP1;ratioP1;P1;durP2;ratioP2;P2;SDS_P1;SDS_P2;PMS_P1;PMS_P2;Temp;Humidity;BMP_temperature;BMP_pressure;BME280_temperature;BME280_humidity;BME280_pressure;Samples;Min_cycle;Max_cycle;Signal;HPM_P1;HPM_P2
2022/06/15 12:28:27;;;;;;;0.75;0.28;;;;;;;-145.06;0.00;60892.56;5940057;23;20028;-94
2022/06/15 12:31:27;;;;;;;0.28;0.20;;;;;;;-145.06;0.00;60892.56;5936444;23;20017;-90
2022/06/15 12:34:19;;;;;;;0.30;0.30;;;;;;;-145.06;0.00;60892.56;5938084;23;20389;-91
2022/06/15 12:37:04;;;;;;;0.50;0.30;;;;;;;-145.06;0.00;60892.56;5938571;23;20017;-91
2022/06/15 12:40:02;;;;;;;0.77;0.40;;;;;;;29.86;0.00;60892.56;5936674;23;20080;-92
2022/06/15 12:42:46;;;;;;;0.30;0.20;;;;;;;29.86;0.00;60892.56;5934628;23;20006;-91
2022/06/15 12:45:32;;;;;;;0.40;0.30;;;;;;;-145.06;0.00;60892.56;5933500;23;20033;-90
2022/06/15 12:48:37;;;;;;;1.13;0.30;;;;;;;-145.06;0.00;60892.56;5934640;23;20006;-93
2022/06/15 12:51:57;;;;;;;0.95;0.30;;;;;;;30.00;0.00;60892.56;5936557;23;20013;-92
2022/06/15 12:55:06;;;;;;;0.40;0.32;;;;;;;30.05;0.00;60892.56;5936933;23;20009;-94
2022/06/15 12:58:12;;;;;;;0.52;0.30;;;;;;;30.08;0.00;60892.56;5937569;23;20001;-92
2022/06/15 13:01:00;;;;;;;0.40;0.20;;;;;;;30.13;0.00;60892.56;5936481;23;20001;-94
2022/06/15 13:03:57;;;;;;;1.45;0.50;;;;;;;30.16;0.00;60892.56;5935705;23;20005;-92
2022/06/15 13:06:39;;;;;;;0.50;0.30;;;;;;;-145.06;0.00;60892.56;5935315;23;20005;-93
2022/06/15 13:09:21;;;;;;;1.60;0.40;;;;;;;-145.06;0.00;60892.56;5936238;23;20040;-92
2022/06/15 13:12:17;;;;;;;0.82;0.30;;;;;;;-145.06;0.00;60892.56;5937817;23;20006;-92
2022/06/15 13:14:58;;;;;;;0.38;0.20;;;;;;;-145.06;0.00;60892.56;5937696;23;20005;-92
2022/06/15 13:18:09;;;;;;;0.40;0.30;;;;;;;-145.06;0.00;60892.56;5940158;23;20061;-92
2022/06/15 13:21:17;;;;;;;1.20;0.30;;;;;;;-145.06;0.00;60892.56;5947071;23;19989;-93
2022/06/15 13:23:57;;;;;;;0.55;0.28;;;;;;;-145.06;0.00;60892.56;5959866;23;19997;-92
2022/06/15 13:26:42;;;;;;;0.77;0.30;;;;;;;-145.06;0.00;60892.56;5948184;23;20017;-92
2022/06/15 13:29:29;;;;;;;0.20;0.20;;;;;;;-145.06;0.00;60892.56;5936794;23;20010;-92
2022/06/15 13:32:09;;;;;;;0.40;0.20;;;;;;;-145.06;0.00;60892.56;5935864;23;20018;-91
2022/06/15 13:34:48;;;;;;;0.75;0.20;;;;;;;-145.06;0.00;60892.56;5936455;23;20013;-91
2022/06/15 13:37:30;;;;;;;0.50;0.40;;;;;;;-145.06;0.00;60892.56;5934113;23;20490;-92
2022/06/15 13:40:12;;;;;;;1.60;0.40;;;;;;;-145.06;0.00;60892.56;5932476;23;20017;-91
2022/06/15 13:43:01;;;;;;;0.90;0.30;;;;;;;-145.06;0.00;60892.56;5934217;23;20009;-92
2022/06/15 13:45:41;;;;;;;0.98;0.40;;;;;;;-145.06;0.00;60892.56;5932227;23;20001;-92
2022/06/15 13:48:37;;;;;;;0.32;0.20;;;;;;;-145.06;0.00;60892.56;5933223;23;20041;-93
2022/06/15 13:51:32;;;;;;;0.50;0.35;;;;;;;-145.06;0.00;60892.56;5933821;23;20005;-91
2022/06/15 13:55:00;;;;;;;0.70;0.25;;;;;;;30.82;0.00;60892.56;5935658;23;20010;-92
2022/06/15 13:58:11;;;;;;;0.55;0.20;;;;;;;-145.06;0.00;60892.56;5935614;23;20009;-91
2022/06/15 14:01:06;;;;;;;0.95;0.30;;;;;;;-145.06;0.00;60892.56;5925099;23;20001;-91
2022/06/15 14:04:18;;;;;;;0.75;0.20;;;;;;;-145.06;0.00;60892.56;5945460;23;20009;-92
2022/06/15 14:07:15;;;;;;;0.50;0.30;;;;;;;-145.06;0.00;60892.56;5935175;23;20009;-91
2022/06/15 14:10:15;;;;;;;0.38;0.22;;;;;;;-145.06;0.00;60892.56;5933587;23;20006;-91
2022/06/15 14:13:14;;;;;;;0.50;0.30;;;;;;;187.52;0.00;60892.56;5934328;23;20088;-92
2022/06/15 14:16:22;;;;;;;0.57;0.38;;;;;;;-145.06;0.00;60892.56;5934388;23;20010;-91
2022/06/15 14:19:06;;;;;;;;;;;;;;;-145.06;0.00;60892.56;5946455;23;20548;-91
2022/06/15 14:22:01;;;;;;;0.43;0.32;;;;;;;-145.06;0.00;60892.56;5934401;23;19908;-91
2022/06/15 14:24:42;;;;;;;0.80;0.40;;;;;;;104.26;0.00;60892.56;5934549;23;20397;-92
2022/06/15 14:27:31;;;;;;;1.80;1.00;;;;;;;-145.06;0.00;60892.56;5933568;23;20421;-93
2022/06/15 14:30:27;;;;;;;1.00;0.40;;;;;;;-145.06;0.00;60892.56;5933932;23;20009;-93
2022/06/15 14:33:16;;;;;;;0.55;0.30;;;;;;;-145.06;0.00;60892.56;5933755;23;20010;-92
2022/06/15 14:36:18;;;;;;;0.73;0.40;;;;;;;-145.06;0.00;60892.56;5934542;23;20353;-92
2022/06/15 14:39:11;;;;;;;1.35;0.38;;;;;;;-145.06;0.00;60892.56;5935769;23;20005;-92
2022/06/15 14:42:07;;;;;;;1.15;0.43;;;;;;;-145.06;0.00;60892.56;5935020;23;20416;-93
2022/06/15 14:44:48;;;;;;;1.27;0.40;;;;;;;-145.06;0.00;60892.56;5936051;23;20452;-92
2022/06/15 14:47:30;;;;;;;0.30;0.20;;;;;;;-145.06;0.00;60892.56;5934180;23;20018;-93
2022/06/15 14:50:09;;;;;;;0.50;0.30;;;;;;;-145.06;0.00;60892.56;5935472;23;20351;-92
2022/06/15 14:52:48;;;;;;;1.48;0.30;;;;;;;-145.06;0.00;60892.56;5935331;23;20432;-92
2022/06/15 14:55:34;;;;;;;1.05;0.13;;;;;;;-145.06;0.00;60892.56;5934374;23;20017;-93
2022/06/15 14:58:21;;;;;;;0.80;0.30;;;;;;;-145.06;0.00;60892.56;5934944;23;20009;-92
2022/06/15 15:01:07;;;;;;;0.57;0.30;;;;;;;-145.06;0.00;60892.56;5935285;23;20444;-92
2022/06/15 15:03:46;;;;;;;0.35;0.25;;;;;;;-145.06;0.00;60892.56;5934890;23;20009;-92
2022/06/15 15:06:25;;;;;;;2.05;0.47;;;;;;;-145.06;0.00;60892.56;5934831;23;20018;-92
2022/06/15 15:09:11;;;;;;;0.30;0.20;;;;;;;-145.06;0.00;60892.56;5935583;23;20009;-92
2022/06/15 15:11:51;;;;;;;0.35;0.20;;;;;;;-145.06;0.00;60892.56;5933910;23;20005;-91
2022/06/15 15:14:32;;;;;;;0.65;0.40;;;;;;;-145.06;0.00;60892.56;5935007;23;20021;-92
2022/06/15 15:17:12;;;;;;;0.73;0.40;;;;;;;-145.06;0.00;60892.56;5935392;23;20013;-93
2022/06/15 15:19:52;;;;;;;0.52;0.40;;;;;;;-145.06;0.00;60892.56;5935817;23;20005;-92
2022/06/15 15:22:51;;;;;;;0.22;0.20;;;;;;;-145.06;0.00;60892.56;5935508;23;20088;-93
2022/06/15 15:25:52;;;;;;;0.13;0.13;;;;;;;-145.06;0.00;60892.56;5934925;23;20009;-93
2022/06/15 15:35:09;;;;;;;0.40;0.20;;;;;;;-145.06;0.00;60892.56;5946738;23;20006;-92
2022/06/15 15:37:49;;;;;;;0.95;0.30;;;;;;;-145.06;0.00;60892.56;5939479;23;20428;-93
2022/06/15 15:40:28;;;;;;;0.63;0.30;;;;;;;-145.06;0.00;60892.56;5939736;23;20006;-92
2022/06/15 15:43:10;;;;;;;0.43;0.30;;;;;;;-145.06;0.00;60892.56;5939610;23;20310;-92
2022/06/15 15:45:49;;;;;;;0.63;0.30;;;;;;;-145.06;0.00;60892.56;5939478;23;20033;-93
2022/06/15 15:48:30;;;;;;;0.57;0.40;;;;;;;-145.06;0.00;60892.56;5939985;23;20428;-92
2022/06/15 15:51:09;;;;;;;0.55;0.30;;;;;;;-145.06;0.00;60892.56;5940691;23;20045;-94
2022/06/15 15:53:51;;;;;;;1.85;0.28;;;;;;;-145.06;0.00;60892.56;5939623;23;20009;-93
2022/06/15 15:56:29;;;;;;;1.17;0.40;;;;;;;-145.06;0.00;60892.56;5940789;23;20029;-93
2022/06/15 15:59:11;;;;;;;0.52;0.38;;;;;;;30.11;0.00;60892.56;5940711;23;20005;-93
2022/06/15 16:01:52;;;;;;;0.93;0.20;;;;;;;30.08;0.00;60892.56;5941378;23;20006;-94
2022/06/15 16:04:35;;;;;;;0.60;0.30;;;;;;;30.06;0.00;60892.56;5940657;23;20005;-91
2022/06/15 16:07:19;;;;;;;0.32;0.22;;;;;;;30.03;0.00;60892.56;5941763;23;20306;-93
2022/06/15 16:10:04;;;;;;;0.85;0.30;;;;;;;30.06;0.00;60892.56;5951537;23;20013;-94
2022/06/15 16:12:44;;;;;;;0.50;0.30;;;;;;;-145.06;0.00;60892.56;5940037;23;20009;-92
2022/06/15 16:15:26;;;;;;;0.45;0.30;;;;;;;187.52;0.00;60892.56;5939258;23;20309;-90
2022/06/15 16:18:08;;;;;;;0.45;0.28;;;;;;;30.09;0.00;60892.56;5939302;23;20010;-92
2022/06/15 16:20:49;;;;;;;0.60;0.40;;;;;;;30.06;0.00;60892.56;5940923;23;20077;-93
2022/06/15 16:23:33;;;;;;;0.43;0.22;;;;;;;-145.06;0.00;60892.56;5940685;23;20010;-93
2022/06/15 16:26:12;;;;;;;0.75;0.35;;;;;;;-145.06;0.00;60892.56;5940721;23;20341;-92
2022/06/15 16:28:52;;;;;;;0.75;0.43;;;;;;;-145.06;0.00;60892.56;5941237;23;20013;-92
2022/06/15 16:31:39;;;;;;;;;;;;;;;-145.06;0.00;60892.56;5944164;23;20005;-96
2022/06/15 16:34:21;;;;;;;0.28;0.20;;;;;;;30.06;0.00;60892.56;5943600;23;19905;-94
2022/06/15 16:37:06;;;;;;;0.32;0.22;;;;;;;30.04;0.00;60892.56;5942757;23;20001;-95
2022/06/15 16:39:48;;;;;;;0.30;0.20;;;;;;;-145.06;0.00;60892.56;5943403;23;20009;-95
2022/06/15 16:42:27;;;;;;;0.43;0.30;;;;;;;-145.06;0.00;60892.56;5942110;23;20005;-94
2022/06/15 16:45:32;;;;;;;0.65;0.32;;;;;;;-145.06;0.00;60892.56;5941977;23;20009;-94
2022/06/15 16:48:12;;;;;;;0.93;0.40;;;;;;;-145.06;0.00;60892.56;5943780;23;20425;-93
2022/06/15 16:50:59;;;;;;;1.00;0.40;;;;;;;-145.06;0.00;60892.56;5943987;23;20006;-93
2022/06/15 16:53:41;;;;;;;2.40;0.40;;;;;;;29.96;0.00;60892.56;5943579;23;20084;-92
2022/06/15 17:25:49;;;;;;;1.15;0.40;;;;;;;-145.06;0.00;60892.56;5912363;23;20429;-93
2022/06/15 17:28:29;;;;;;;0.50;0.40;;;;;;;-145.06;0.00;60892.56;5890382;23;20010;-95
2022/06/15 17:31:08;;;;;;;1.20;0.50;;;;;;;-145.06;0.00;60892.56;5891061;23;20081;-94
2022/06/15 17:33:48;;;;;;;;;;;;;;;-145.06;0.00;60892.56;5891115;23;20009;-94
2022/06/15 17:36:28;;;;;;;0.55;0.40;;;;;;;29.52;0.00;60892.56;5911548;23;19909;-94
2022/06/15 17:39:09;;;;;;;0.57;0.30;;;;;;;-145.06;0.00;60892.56;5911880;23;20637;-95
2022/06/15 17:41:51;;;;;;;0.52;0.32;;;;;;;-145.06;0.00;60892.56;5911365;23;20073;-95
2022/06/15 17:44:31;;;;;;;0.50;0.30;;;;;;;-145.06;0.00;60892.56;5912116;23;20309;-95
2022/06/15 17:47:10;;;;;;;0.40;0.28;;;;;;;-145.06;0.00;60892.56;5911966;23;20010;-92
2022/06/15 17:49:50;;;;;;;1.25;0.70;;;;;;;-145.06;0.00;60892.56;5911779;23;20010;-95
2022/06/15 17:52:29;;;;;;;0.73;0.30;;;;;;;-145.06;0.00;60892.56;5912696;23;20006;-93
2022/06/15 17:55:11;;;;;;;0.55;0.30;;;;;;;-145.06;0.00;60892.56;5912252;23;20010;-95
2022/06/15 17:57:50;;;;;;;0.95;0.50;;;;;;;-145.06;0.00;60892.56;5912305;23;20365;-95
2022/06/15 18:00:29;;;;;;;0.73;0.43;;;;;;;-145.06;0.00;60892.56;5911717;23;20009;-94
2022/06/15 18:03:10;;;;;;;;;;;;;;;-145.06;0.00;60892.56;5912101;23;20006;-94
2022/06/15 18:05:50;;;;;;;0.60;0.40;;;;;;;187.52;0.00;60892.56;5911789;23;19905;-92
2022/06/15 18:08:30;;;;;;;0.50;0.30;;;;;;;-145.06;0.00;60892.56;5911687;23;20432;-92
2022/06/15 18:11:12;;;;;;;0.30;0.20;;;;;;;-145.06;0.00;60892.56;5911753;23;20010;-91
2022/06/15 18:13:53;;;;;;;0.60;0.30;;;;;;;-145.06;0.00;60892.56;5911996;23;20487;-92
2022/06/15 18:16:37;;;;;;;0.32;0.22;;;;;;;-145.06;0.00;60892.56;5911235;23;20014;-92
2022/06/15 18:19:21;;;;;;;0.65;0.20;;;;;;;-145.06;0.00;60892.56;5911624;23;20014;-92
2022/06/15 18:22:02;;;;;;;1.60;0.32;;;;;;;-145.06;0.00;60892.56;5910254;23;20029;-93
2022/06/15 18:24:44;;;;;;;0.95;0.40;;;;;;;-145.06;0.00;60892.56;5907521;23;20584;-91
2022/06/15 18:27:23;;;;;;;0.57;0.30;;;;;;;28.87;0.00;60892.56;5908387;23;20010;-92
2022/06/15 18:30:05;;;;;;;0.80;0.45;;;;;;;-145.06;0.00;60892.56;5919936;23;20042;-92
2022/06/15 18:32:49;;;;;;;0.75;0.30;;;;;;;-145.06;0.00;60892.56;5909853;23;20010;-93
2022/06/15 18:35:32;;;;;;;0.93;0.40;;;;;;;-145.06;0.00;60892.56;5909190;23;20005;-93
2022/06/15 18:38:14;;;;;;;0.70;0.40;;;;;;;-145.06;0.00;60892.56;5911105;23;20089;-93
2022/06/15 18:40:54;;;;;;;0.85;0.30;;;;;;;-145.06;0.00;60892.56;5910890;23;20010;-93
2022/06/15 18:49:29;;;;;;;1.38;0.30;;;;;;;-145.06;0.00;60892.56;5921795;23;20005;-93
2022/06/15 18:52:09;;;;;;;0.40;0.40;;;;;;;-145.06;0.00;60892.56;5911455;23;20010;-91
2022/06/15 19:28:16;;;;;;;0.30;0.30;;;;;;;-145.06;0.00;60892.56;5863982;23;20027;-93
2022/06/15 19:31:06;;;;;;;1.00;0.40;;;;;;;-145.06;0.00;60892.56;5832909;23;20022;-94
2022/06/15 22:17:29;;;;;;;0.30;0.25;;;;;;;-145.06;0.00;60892.56;5938224;23;20032;-95
2022/06/15 22:20:26;;;;;;;1.05;0.40;;;;;;;-145.06;0.00;60892.56;5939385;23;20076;-93
2022/06/15 22:23:38;;;;;;;;;;;;;;;;;;;;;
2022/06/15 22:27:09;;;;;;;;;;;;;;;;;;;;;
2022/06/15 22:34:02;;;;;;;;;;;;;;;;;;;;;
2022/06/15 22:40:28;;;;;;;1.13;0.35;;;;;;;-145.06;0.00;60892.56;5880024;23;20500;-95
2022/06/15 22:43:57;;;;;;;0.60;0.40;;;;;;;21.79;0.00;60892.56;5913070;23;20010;-95
2022/06/15 22:57:16;;;;;;;0.30;0.30;;;;;;;-145.06;0.00;60892.56;5914329;23;20014;-92
2022/06/15 23:00:19;;;;;;;;;;;;;;;;;;;;;
2022/06/15 23:06:38;;;;;;;0.95;0.40;;;;;;;-145.06;0.00;60892.56;5922205;23;20009;-93
2022/06/15 23:09:32;;;;;;;;;;;;;;;;;;;;;
2022/06/15 23:12:38;;;;;;;;;;;;;;;;;;;;;
2022/06/15 23:15:46;;;;;;;0.20;0.20;;;;;;;-145.06;0.00;60892.56;5921541;23;20009;-91
2022/06/15 23:21:41;;;;;;;3.00;0.40;;;;;;;-145.06;0.00;60892.56;5923767;23;20002;-91
2022/06/15 23:24:25;;;;;;;2.78;1.15;;;;;;;-145.06;0.00;60892.56;5913142;23;20006;-92
2022/06/15 23:27:43;;;;;;;;;;;;;;;;;;;;;
2022/06/15 23:30:54;;;;;;;;;;;;;;;;;;;;;
2022/06/15 23:33:57;;;;;;;2.28;0.63;;;;;;;-145.06;0.00;60892.56;5922253;23;20014;-92
2022/06/15 23:37:11;;;;;;;1.77;0.50;;;;;;;-145.06;0.00;60892.56;5879649;23;20019;-93
2022/06/15 23:40:15;;;;;;;3.38;0.77;;;;;;;-145.06;0.00;60892.56;5886187;23;20006;-92
2022/06/15 23:43:26;;;;;;;;;;;;;;;;;;;;;
2022/06/15 23:49:16;;;;;;;1.17;0.40;;;;;;;-145.06;0.00;60892.56;5896220;23;20006;-93
2022/06/15 23:52:06;;;;;;;1.50;0.40;;;;;;;-145.06;0.00;60892.56;5886015;23;20007;-93
2022/06/15 23:55:04;;;;;;;;;;;;;;;;;;;;;
2022/06/15 23:58:15;;;;;;;;;;;;;;;;;;;;;
